横田飛行場の過去48時間の天気

横田飛行場 (Yokota)

現在時刻: 4/27 14:01 JST (4/27 05:01 UTC) 以下の時間は現地時間です。

過去48時間のMETAR気象情報
時間 風向 風速(m/s) 視程 気温(℃) 湿度(%) 気圧(hPa) 天気現象
27 12:56 4 10km以上 20 61 1010
27 11:56 5 10km以上 20.4 57 1010.3
27 10:56 5 10km以上 20.2 57 1011.7
27 09:56 南南西 4 10km以上 19.1 59 1012.7
27 08:56 静穏 0 10km以上 17.8 61 1013.4
27 07:56 2 10km以上 16 67 1014.1
27 06:56 2 10km以上 14.4 76 1014.8
27 05:56 2 10km以上 12.6 87 1014.8
27 04:56 静穏 0 10km以上 12 88 1014.8
27 03:56 3 10km以上 10.9 90 1014.8
27 02:56 静穏 0 10km以上 12.2 86 1014.3
27 00:56 静穏 0 10km以上 14.3 82 1014.9
26 23:56 4 10km以上 14.7 80 1015.3
26 22:56 5 10km以上 14.7 84 1015.3
26 21:56 4 10km以上 15 83 1015.3
26 20:56 南南西 6 10km以上 15.7 79 1015.3
26 19:56 南南西 5 10km以上 15.8 71 1015
26 18:56 8 10km以上 16 74 1014.4
26 17:56 5 10km以上 17.3 65 1013.8
26 16:56 南南西 6 10km以上 19.1 54 1012.7
26 15:56 6 10km以上 20.2 46 1012.3
26 14:56 6 10km以上 23.7 38 1011.1
26 13:56 北東 5 10km以上 24.1 27 1011.1
26 13:01 東北東 5 10km以上 24 27 1011.1
26 12:56 4 10km以上 24 29 1011.1
26 12:01 6 10km以上 23 29 1011.1
26 11:56 北東 6 10km以上 23.1 29 1011.1
26 10:56 8 10km以上 22.9 24 1011.1
26 09:56 北北東 9 10km以上 21.3 38 1010.4
26 08:56 北北東 8 10km以上 20.3 35 1010.1
26 08:04 6 10km以上 18 39 1009.8
26 07:58 北北西 6 10km以上 18 42 1009.5
26 07:56 7 10km以上 18 44 1009.5
26 06:56 6 10km以上 16.1 52 1008.9
26 05:56 北北東 6 10km以上 13.2 66 1007.9
26 04:56 4 10km以上 12.6 68 1007.2
RJTY 270356Z AUTO 19008KT 10SM SCT170 20/12 A2982 RMK AO2 SLP100 T02000122 FZRANO $
RJTY 270256Z AUTO 18009KT 10SM BKN170 20/12 A2983 RMK AO2 SLP103 T02040116 57029 FZRANO $
RJTY 270156Z AUTO 18010KT 10SM OVC170 20/11 A2987 RMK AO2 SLP117 T02020114 FZRANO $
RJTY 270056Z AUTO 21008KT 10SM FEW150 OVC170 19/11 A2990 RMK AO2 SLP127 T01910109 FZRANO $
RJTY 262356Z AUTO 00000KT 10SM OVC170 18/10 A2992 RMK AO2 SLP134 T01780102 10178 20109 58014 FZRANO $
RJTY 262256Z AUTO 36003KT 10SM OVC170 16/10 A2994 RMK AO2 SLP141 T01600099 FZRANO $
RJTY 262156Z AUTO 36003KT 10SM BKN180 14/10 A2996 RMK AO2 SLP148 T01440102 FZRANO $
RJTY 262056Z AUTO 36003KT 10SM FEW180 BKN200 13/11 A2996 RMK AO2 SLP148 T01260105 52002 FZRANO $
RJTY 261956Z AUTO 00000KT 10SM BKN170 BKN200 12/10 A2996 RMK AO2 SLP148 T01200101 FZRANO $
RJTY 261856Z AUTO 36005KT 10SM BKN180 11/09 A2996 RMK AO2 SLP148 T01090093 FZRANO $
RJTY 261756Z AUTO 00000KT 10SM FEW190 12/10 A2995 RMK AO2 SLP143 T01220099 10157 20122 58007 FZRANO $
RJTY 261556Z AUTO 00000KT 10SM CLR 14/11 A2997 RMK AO2 SLP149 T01430113 FZRANO $
RJTY 261456Z AUTO 18008KT 10SM CLR 15/11 A2998 RMK AO2 SLP153 T01470113 402440123 58001 FZRANO $
RJTY 261356Z AUTO 19010KT 10SM CLR 15/12 A2998 RMK AO2 SLP153 T01470120 FZRANO $
RJTY 261256Z AUTO 18007KT 10SM CLR 15/12 A2998 RMK AO2 SLP153 T01500121 FZRANO $
RJTY 261156Z AUTO 20011KT 10SM CLR 16/12 A2998 RMK AO2 SLP153 T01570121 10236 20155 52017 FZRANO $
RJTY 261056Z AUTO 20010KT 10SM CLR 16/11 A2997 RMK AO2 SLP150 T01580105 FZRANO $
RJTY 260956Z AUTO 18015G20KT 10SM CLR 16/11 A2995 RMK AO2 SLP144 T01600114 FZRANO $
RJTY 260856Z AUTO 19010KT 10SM CLR 17/11 A2993 RMK AO2 SLP138 T01730107 52021 FZRANO $
RJTY 260756Z AUTO 20011KT 10SM CLR 19/10 A2990 RMK AO2 SLP127 T01910096 FZRANO $
RJTY 260656Z AUTO 19012KT 10SM CLR 20/08 A2989 RMK AO2 SLP123 T02020082 FZRANO $
RJTY 260556Z AUTO 19012G16KT 10SM CLR 24/09 A2986 RMK AO2 SLP111 T02370085 10244 20202 53000 FZRANO $
RJTY 260456Z AUTO 04009KT 10SM CLR 24/04 A2986 RMK AO2 SLP111 T02410039 FZRANO $
RJTY 260401Z AUTO 06010G17KT 10SM CLR 24/04 A2986 RMK AO2 WSHFT 0358 SLP111 FZRANO $
RJTY 260356Z AUTO 08007G17KT 10SM CLR 24/05 A2986 RMK AO2 SLP111 T02400049 FZRANO $
RJTY 260301Z AUTO 36012KT 10SM CLR 23/04 A2986 RMK AO2 WSHFT 0248 SLP111 FZRANO $
RJTY 260256Z AUTO 04011KT 10SM CLR 23/04 A2986 RMK AO2 PK WND 01026/04 SLP111 T02310041 52012 FZRANO $
RJTY 260156Z AUTO 36015G26KT 10SM CLR 23/01 A2986 RMK AO2 PK WND 01026/13 SLP111 T02290012 FZRANO $
RJTY 260056Z AUTO 03018G22KT 10SM CLR 21/06 A2984 RMK AO2 SLP104 T02130064 FZRANO $
RJTY 252356Z AUTO 02016G21KT 10SM CLR 20/04 A2983 RMK AO2 SLP101 70040 T02030043 10203 20123 52022 FZRANO $
RJTY 252304Z AUTO 01011G18KT 10SM CLR 18/04 A2982 RMK AO2 WSHFT 2259 SLP098 FZRANO $
RJTY 252258Z AUTO 34012G18KT 10SM CLR 18/05 A2981 RMK AO2 WSHFT 54 SLP095 FZRANO $
RJTY 252256Z AUTO 01013G18KT 10SM CLR 18/06 A2981 RMK AO2 SLP095 T01800056 FZRANO $
RJTY 252156Z AUTO 01012KT 10SM CLR 16/06 A2979 RMK AO2 SLP089 T01610062 FZRANO $
RJTY 252056Z AUTO 03011KT 10SM CLR 13/07 A2976 RMK AO2 SLP079 T01320070 52029 FZRANO $
RJTY 251956Z AUTO 36007KT 10SM CLR 13/07 A2974 RMK AO2 SLP072 T01260068 FZRANO $